Time;durP1;ratioP1;P1;durP2;ratioP2;P2;SDS_P1;SDS_P2;PMS_P1;PMS_P2;Temp;Humidity;BMP_temperature;BMP_pressure;BME280_temperature;BME280_humidity;BME280_pressure;Samples;Min_cycle;Max_cycle;Signal;HPM_P1;HPM_P2
2022/02/06 00:07:48;;;;;;;11.18;3.38;;;;;;;4.30;83.46;100997.03;20772702;28;20052;-69
2022/02/06 00:17:50;;;;;;;12.18;2.95;;;;;;;4.19;84.28;100977.81;20771907;28;20045;-69
2022/02/06 00:28:04;;;;;;;9.13;3.00;;;;;;;4.17;85.19;100969.16;20779514;28;20431;-69
2022/02/06 00:38:25;;;;;;;7.78;2.63;;;;;;;4.24;84.43;100965.81;20770673;28;20057;-69
2022/02/06 00:48:29;;;;;;;9.25;2.30;;;;;;;4.34;84.40;100946.13;20765729;28;20785;-68
2022/02/06 00:58:31;;;;;;;13.40;2.80;;;;;;;4.46;83.17;100937.72;20777909;28;20053;-69
2022/02/06 01:08:34;;;;;;;7.93;2.30;;;;;;;4.42;83.64;100948.88;20766406;28;20046;-69
2022/02/06 01:18:48;;;;;;;11.85;2.47;;;;;;;4.35;83.86;100946.16;20771041;28;20057;-69
2022/02/06 01:28:56;;;;;;;13.48;2.53;;;;;;;4.24;84.15;100952.88;20769714;28;20052;-69
2022/02/06 01:39:06;;;;;;;11.93;2.80;;;;;;;4.36;83.22;100958.28;20756954;28;20195;-69
2022/02/06 02:20:46;;;;;;;9.57;2.50;;;;;;;4.46;83.43;100867.72;20768200;28;20045;-68
2022/02/06 02:51:11;;;;;;;14.43;2.55;;;;;;;4.53;80.75;100792.63;20771450;28;20047;-69
2022/02/06 03:01:29;;;;;;;11.18;2.35;;;;;;;4.50;81.26;100777.00;20780703;28;20045;-68
2022/02/06 03:11:31;;;;;;;7.85;2.25;;;;;;;4.47;80.43;100771.78;20776775;28;20466;-68
2022/02/06 03:21:34;;;;;;;8.02;2.10;;;;;;;4.59;80.04;100760.72;20782674;28;20103;-69
2022/02/06 03:31:39;;;;;;;6.45;1.95;;;;;;;4.51;79.90;100746.78;20775593;28;20050;-69
2022/02/06 03:42:32;;;;;;;7.03;1.92;;;;;;;4.48;80.09;100741.53;20777508;28;20104;-67
2022/02/06 03:52:02;;;;;;;9.57;2.00;;;;;;;4.44;81.20;100724.19;20769393;28;20038;-68
2022/02/06 04:02:05;;;;;;;7.72;1.80;;;;;;;4.45;80.28;100681.84;20770447;28;20041;-69
2022/02/06 04:12:07;;;;;;;6.82;1.75;;;;;;;4.37;80.01;100695.59;20776917;28;20062;-69
2022/02/06 04:22:08;;;;;;;9.57;2.00;;;;;;;4.30;81.75;100701.53;20775907;28;20434;-68
2022/02/06 04:32:15;;;;;;;6.68;2.80;;;;;;;4.31;81.91;100679.06;20770260;28;20124;-69
2022/02/06 05:33:19;;;;;;;11.60;2.00;;;;;;;4.49;82.54;100665.50;20768017;28;20042;-68
2022/02/06 05:43:21;;;;;;;11.98;2.00;;;;;;;4.52;82.66;100661.22;20773546;28;20088;-68
2022/02/06 05:53:22;;;;;;;10.20;2.10;;;;;;;4.58;82.57;100631.91;20764979;28;20088;-69
2022/02/06 06:03:24;;;;;;;8.13;2.00;;;;;;;4.50;84.19;100623.16;20769169;28;20038;-69
2022/02/06 06:13:26;;;;;;;6.50;1.90;;;;;;;4.65;82.94;100600.03;20767973;28;20223;-69
2022/02/06 06:23:28;;;;;;;9.10;2.15;;;;;;;4.71;82.80;100600.09;20760931;28;20104;-69
2022/02/06 06:33:29;;;;;;;10.45;2.00;;;;;;;4.74;83.83;100574.16;20770522;28;20084;-68
2022/02/06 06:43:31;;;;;;;6.85;1.85;;;;;;;4.74;84.16;100576.75;20761056;28;20483;-68
2022/02/06 06:53:37;;;;;;;8.20;1.95;;;;;;;4.87;83.05;100555.28;20763689;28;20071;-69
2022/02/06 07:03:38;;;;;;;9.65;2.00;;;;;;;4.80;83.17;100537.94;20765786;28;20045;-68
2022/02/06 07:13:41;;;;;;;9.25;2.20;;;;;;;4.89;83.07;100521.59;20761042;28;20461;-68
2022/02/06 07:23:42;;;;;;;7.82;1.80;;;;;;;4.88;85.33;100501.66;20765165;28;20734;-68
2022/02/06 07:33:44;;;;;;;6.13;1.80;;;;;;;4.93;86.45;100488.72;20763620;28;20073;-69
2022/02/06 07:43:45;;;;;;;8.15;1.90;;;;;;;4.90;86.45;100471.44;20778248;28;20104;-68
2022/02/06 07:53:47;;;;;;;7.10;1.90;;;;;;;5.01;85.21;100448.16;20781275;28;20086;-69
2022/02/06 08:03:48;;;;;;;14.15;2.28;;;;;;;5.08;85.10;100416.22;20766468;28;20061;-69
2022/02/06 08:13:56;;;;;;;18.45;6.45;;;;;;;5.15;84.24;100407.59;20766002;28;20053;-68
2022/02/06 08:23:57;;;;;;;9.02;1.88;;;;;;;5.38;85.83;100407.75;20774016;28;20049;-68
2022/02/06 08:33:59;;;;;;;12.35;2.53;;;;;;;5.48;88.84;100413.84;20761088;28;20054;-69
2022/02/06 08:44:05;;;;;;;10.55;2.83;;;;;;;5.26;90.49;100399.88;20731999;28;20077;-69
2022/02/06 08:54:07;;;;;;;6.63;2.20;;;;;;;5.38;91.18;100386.97;20730243;28;21022;-69
2022/02/06 09:04:08;;;;;;;11.95;3.60;;;;;;;5.57;90.74;100359.38;20738665;28;20096;-69
2022/02/06 09:14:10;;;;;;;9.80;2.63;;;;;;;5.77;88.73;100355.09;20769827;28;20064;-68
2022/02/06 09:24:12;;;;;;;9.18;2.40;;;;;;;5.82;87.25;100335.19;20761323;28;20041;-68
2022/02/06 09:44:16;;;;;;;6.05;2.38;;;;;;;5.88;85.20;100290.16;20761706;28;20045;-68
2022/02/06 09:54:25;;;;;;;12.25;2.72;;;;;;;6.06;85.59;100242.56;20755686;28;20049;-68
2022/02/06 10:04:29;;;;;;;10.73;2.10;;;;;;;6.09;87.73;100224.41;20769988;28;20085;-68
2022/02/06 10:14:31;;;;;;;8.63;1.77;;;;;;;5.75;89.28;100218.25;20759000;28;20537;-68
2022/02/06 10:24:34;;;;;;;5.60;1.75;;;;;;;6.00;89.60;100214.00;20763926;28;20041;-68
2022/02/06 10:34:37;;;;;;;9.07;1.80;;;;;;;5.90;92.44;100216.56;20761740;28;20050;-69
2022/02/06 10:44:38;;;;;;;7.45;1.77;;;;;;;5.72;95.96;100190.56;20756113;28;20046;-71
2022/02/06 10:54:41;;;;;;;7.63;2.05;;;;;;;5.60;98.38;100164.56;20759151;28;20100;-71
2022/02/06 11:05:55;;;;;;;9.95;1.92;;;;;;;5.46;99.90;100155.91;20761129;28;20046;-71
2022/02/06 11:15:44;;;;;;;8.75;2.30;;;;;;;5.48;100.00;100143.81;20753276;28;20457;-70
2022/02/06 11:25:47;;;;;;;7.57;2.08;;;;;;;5.57;100.00;100094.47;20782590;28;20046;-70
2022/02/06 11:35:56;;;;;;;7.35;2.00;;;;;;;5.76;100.00;100069.34;20774873;28;20049;-71
2022/02/06 11:46:45;;;;;;;6.72;1.83;;;;;;;5.62;100.00;100033.00;20768905;28;20141;-71
2022/02/06 11:56:46;;;;;;;9.25;2.40;;;;;;;5.66;100.00;99993.19;20778060;28;20050;-71
2022/02/06 12:06:48;;;;;;;9.00;2.15;;;;;;;5.67;100.00;99968.94;20749144;28;20620;-72
2022/02/06 12:17:17;;;;;;;8.82;1.90;;;;;;;5.69;100.00;99945.53;20771100;28;20112;-71
2022/02/06 12:27:27;;;;;;;10.52;2.88;;;;;;;5.65;100.00;99913.50;20774224;28;20428;-71
2022/02/06 12:37:32;;;;;;;8.05;2.05;;;;;;;5.65;100.00;99900.50;20770147;28;20053;-71
2022/02/06 12:47:37;;;;;;;;;;;;;;;5.65;100.00;99887.53;20769356;28;20077;-72
2022/02/06 12:57:46;;;;;;;11.37;2.40;;;;;;;5.61;100.00;99865.06;20762625;28;19929;-71
2022/02/06 13:07:49;;;;;;;7.28;2.45;;;;;;;5.51;100.00;99842.56;20761238;28;20454;-72
2022/02/06 13:38:06;;;;;;;12.80;3.15;;;;;;;5.41;100.00;99784.63;20759780;28;20450;-72
2022/02/06 13:48:09;;;;;;;7.75;2.47;;;;;;;5.51;100.00;99752.59;20765919;28;20104;-72
2022/02/06 13:58:13;;;;;;;5.53;1.70;;;;;;;5.47;100.00;99748.28;20761671;28;20092;-72
2022/02/06 14:08:17;;;;;;;4.40;1.70;;;;;;;5.49;100.00;99709.31;20761403;28;20046;-71
2022/02/06 14:18:18;;;;;;;7.47;1.80;;;;;;;5.63;100.00;99671.13;20766202;28;20447;-72
2022/02/06 14:28:29;;;;;;;4.25;1.52;;;;;;;5.58;100.00;99665.13;20751053;28;20256;-70
2022/02/06 14:38:38;;;;;;;6.53;1.52;;;;;;;5.56;100.00;99646.97;20757315;28;20052;-75
2022/02/06 14:48:40;;;;;;;3.45;1.50;;;;;;;5.58;100.00;99615.78;20766836;28;20049;-75
2022/02/06 14:58:49;;;;;;;5.43;1.70;;;;;;;5.67;100.00;99589.72;20737839;28;20422;-74
2022/02/06 15:08:52;;;;;;;3.78;1.30;;;;;;;5.59;100.00;99586.34;20762841;28;20056;-76
2022/02/06 15:19:12;;;;;;;3.80;1.52;;;;;;;5.64;100.00;99558.59;20760025;28;20100;-75
2022/02/06 15:29:13;;;;;;;5.25;1.50;;;;;;;5.57;100.00;99559.53;20761152;28;20038;-75
2022/02/06 15:39:23;;;;;;;5.32;2.00;;;;;;;5.60;100.00;99549.09;20762980;28;20052;-75
2022/02/06 15:49:24;;;;;;;21.58;9.23;;;;;;;5.63;100.00;99525.72;20756558;28;20463;-75
2022/02/06 15:59:26;;;;;;;2.50;1.30;;;;;;;5.68;100.00;99510.09;20761325;28;20069;-74
2022/02/06 16:09:29;;;;;;;5.25;1.30;;;;;;;5.83;100.00;99482.19;20781604;28;20045;-76
2022/02/06 16:19:31;;;;;;;4.43;1.75;;;;;;;5.93;100.00;99445.75;20768384;28;20061;-76
2022/02/06 16:29:32;;;;;;;3.22;1.20;;;;;;;5.89;100.00;99456.19;20773657;28;20049;-76
2022/02/06 16:39:34;;;;;;;3.50;1.10;;;;;;;5.97;100.00;99437.06;20778718;28;20241;-76
2022/02/06 16:49:37;;;;;;;2.25;0.77;;;;;;;6.03;100.00;99429.16;20765597;28;20049;-75
2022/02/06 16:59:39;;;;;;;5.75;2.08;;;;;;;6.11;100.00;99414.34;20775184;28;20077;-75
2022/02/06 17:09:41;;;;;;;2.70;1.60;;;;;;;6.12;100.00;99403.06;20765188;28;20463;-76
2022/02/06 17:19:42;;;;;;;4.35;1.60;;;;;;;6.08;100.00;99399.63;20765822;28;20097;-76
2022/02/06 17:29:44;;;;;;;2.55;0.80;;;;;;;6.09;100.00;99390.13;20773831;28;20091;-76
2022/02/06 17:39:46;;;;;;;4.93;2.42;;;;;;;6.13;100.00;99400.47;20758697;28;20096;-76
2022/02/06 17:49:48;;;;;;;4.80;1.70;;;;;;;6.21;100.00;99389.09;20749357;28;20502;-76
2022/02/06 17:59:50;;;;;;;2.67;1.27;;;;;;;6.24;100.00;99392.50;20773321;28;20530;-74
2022/02/06 18:09:57;;;;;;;2.28;0.60;;;;;;;6.55;100.00;99405.03;20751285;28;20042;-74
2022/02/06 18:20:00;;;;;;;0.75;0.28;;;;;;;7.00;100.00;99413.00;20768215;28;20184;-74
2022/02/06 18:30:02;;;;;;;3.22;0.70;;;;;;;7.00;100.00;99429.47;20763838;28;20046;-74
2022/02/06 18:40:05;;;;;;;5.63;0.80;;;;;;;6.84;100.00;99446.22;20760095;28;20041;-76
2022/02/06 18:50:07;;;;;;;2.75;0.35;;;;;;;6.72;100.00;99454.22;20767685;28;20112;-76
2022/02/06 19:00:09;;;;;;;1.17;0.30;;;;;;;6.59;100.00;99456.13;20756830;28;20557;-74
2022/02/06 19:10:11;;;;;;;2.08;1.00;;;;;;;6.14;100.00;99430.75;20761382;28;20046;-75
2022/02/06 19:20:13;;;;;;;0.68;0.40;;;;;;;5.97;100.00;99437.91;20761905;28;20057;-74
2022/02/06 19:30:14;;;;;;;1.13;0.40;;;;;;;5.80;100.00;99419.91;20757835;28;20053;-75
2022/02/06 19:40:19;;;;;;;4.35;0.50;;;;;;;5.73;100.00;99387.09;20780078;28;20050;-74
2022/02/06 19:50:20;;;;;;;0.98;0.20;;;;;;;5.60;100.00;99386.38;20769864;28;20410;-75
2022/02/06 20:00:22;;;;;;;2.20;0.32;;;;;;;5.56;100.00;99389.03;20769812;28;20069;-75
2022/02/06 20:10:24;;;;;;;1.73;0.30;;;;;;;5.51;100.00;99349.25;20744271;28;20038;-76
2022/02/06 20:20:25;;;;;;;1.10;0.40;;;;;;;5.56;100.00;99363.09;20766659;28;20049;-77
2022/02/06 20:30:27;;;;;;;2.00;0.70;;;;;;;5.45;100.00;99344.16;20784357;28;20049;-77
2022/02/06 20:40:28;;;;;;;2.25;0.63;;;;;;;5.38;100.00;99302.72;20772994;28;20060;-78
2022/02/06 20:50:29;;;;;;;2.60;0.40;;;;;;;5.17;100.00;99323.69;20780600;28;20042;-78
2022/02/06 21:00:31;;;;;;;3.03;0.40;;;;;;;5.11;100.00;99342.78;20774363;28;20058;-77
2022/02/06 21:10:33;;;;;;;4.47;1.35;;;;;;;5.16;100.00;99290.84;20773213;28;20049;-78
2022/02/06 21:20:36;;;;;;;2.60;0.30;;;;;;;5.16;100.00;99327.19;20777028;28;20498;-77
2022/02/06 21:30:38;;;;;;;2.85;0.40;;;;;;;5.15;100.00;99335.84;20787097;28;20049;-79
2022/02/06 21:40:41;;;;;;;1.02;0.30;;;;;;;5.43;100.00;99358.91;20778630;28;20054;-76
2022/02/06 21:50:42;;;;;;;2.85;0.30;;;;;;;5.51;100.00;99323.31;20768609;28;20049;-76
2022/02/06 22:00:44;;;;;;;1.45;0.30;;;;;;;5.43;100.00;99320.81;20762460;28;20042;-74
2022/02/06 22:10:59;;;;;;;0.65;0.10;;;;;;;5.37;100.00;99346.88;20761620;28;20665;-73
2022/02/06 22:22:14;;;;;;;0.17;0.10;;;;;;;5.28;100.00;99316.69;20768465;28;20112;-74
2022/02/06 22:31:34;;;;;;;1.85;0.20;;;;;;;5.29;100.00;99322.72;20761015;28;20049;-71
2022/02/06 22:41:40;;;;;;;1.08;0.30;;;;;;;5.28;100.00;99373.78;20764355;28;20056;-73
2022/02/06 22:51:41;;;;;;;1.70;0.15;;;;;;;5.20;100.00;99388.56;20765450;28;20411;-73
2022/02/06 23:01:43;;;;;;;0.70;0.13;;;;;;;5.05;100.00;99401.69;20761417;28;20046;-72
2022/02/06 23:11:45;;;;;;;0.90;0.20;;;;;;;5.10;100.00;99431.91;20780471;28;20042;-74
2022/02/06 23:21:48;;;;;;;0.63;0.20;;;;;;;5.13;100.00;99493.28;20782302;28;20103;-75
2022/02/06 23:31:50;;;;;;;0.93;0.20;;;;;;;4.86;100.00;99500.41;20905857;23;20041;-79
2022/02/06 23:41:51;;;;;;;2.33;0.20;;;;;;;4.76;100.00;99514.31;20912031;28;20045;-79
2022/02/06 23:52:08;;;;;;;1.73;0.20;;;;;;;4.76;100.00;99524.69;20906473;28;20091;-79
